createdAt,value
2022-08-11T00:00:52.974Z,10.1
2022-08-11T00:02:10.079Z,10.4
2022-08-11T00:03:27.183Z,10.5
2022-08-11T00:04:44.288Z,10.4
2022-08-11T00:06:01.392Z,10.9
2022-08-11T00:07:18.496Z,10.9
2022-08-11T00:08:35.600Z,11.7
2022-08-11T00:09:51.721Z,11.6
2022-08-11T00:11:08.825Z,12.6
2022-08-11T00:12:25.930Z,12.4
2022-08-11T00:13:43.034Z,11.9
2022-08-11T00:15:00.138Z,12.6
2022-08-11T00:16:17.243Z,13.1
2022-08-11T00:17:34.348Z,11.5
2022-08-11T00:18:51.452Z,11.7
2022-08-11T00:20:08.556Z,13.1
2022-08-11T00:21:25.660Z,13.2
2022-08-11T00:22:42.765Z,11.4
2022-08-11T00:23:59.869Z,11.9
2022-08-11T00:25:16.973Z,12.9
2022-08-11T00:26:33.094Z,13.1
2022-08-11T00:27:50.198Z,13.9
2022-08-11T00:29:07.303Z,12.5
2022-08-11T00:30:24.407Z,12.3
2022-08-11T00:31:41.512Z,12.4
2022-08-11T00:32:58.616Z,12.3
2022-08-11T00:34:15.720Z,12.6
2022-08-11T00:35:32.825Z,12.1
2022-08-11T00:36:49.929Z,12.7
2022-08-11T00:38:07.034Z,12.5
2022-08-11T00:39:24.138Z,11.9
2022-08-11T00:40:41.242Z,12.4
2022-08-11T00:41:58.347Z,14
2022-08-11T00:43:14.468Z,10.7
2022-08-11T00:44:31.572Z,15.3
2022-08-11T00:45:48.676Z,14.4
2022-08-11T00:47:05.781Z,10.8
2022-08-11T00:48:22.885Z,14.1
2022-08-11T00:49:39.991Z,15
2022-08-11T00:50:57.095Z,12.5
2022-08-11T00:52:14.200Z,13.6
2022-08-11T00:53:31.304Z,12.5
2022-08-11T00:54:48.409Z,12.1
2022-08-11T00:56:05.513Z,14.3
2022-08-11T00:57:22.617Z,12.7
2022-08-11T00:58:39.721Z,12.6
2022-08-11T00:59:55.842Z,15.5
2022-08-11T01:01:12.947Z,13
2022-08-11T01:02:30.051Z,14.4
2022-08-11T01:03:47.155Z,15.1
2022-08-11T01:05:04.260Z,13.1
2022-08-11T01:06:21.364Z,13.6
2022-08-11T01:07:37.485Z,13.4
2022-08-11T01:08:54.589Z,12.7
2022-08-11T01:10:11.693Z,13.4
2022-08-11T01:11:28.797Z,14.4
2022-08-11T01:12:45.902Z,13
2022-08-11T01:14:03.006Z,13.5
2022-08-11T01:15:20.110Z,14.6
2022-08-11T01:16:37.214Z,14.5
2022-08-11T01:17:54.318Z,12.7
2022-08-11T01:19:11.422Z,12.1
2022-08-11T01:20:28.526Z,13.4
2022-08-11T01:21:45.630Z,15.3
2022-08-11T01:23:02.735Z,15.3
2022-08-11T01:24:18.855Z,14
2022-08-11T01:25:35.959Z,14.3
2022-08-11T01:26:53.063Z,15.9
2022-08-11T01:28:10.167Z,13.7
2022-08-11T01:29:27.271Z,14
2022-08-11T01:30:44.375Z,12.9
2022-08-11T01:32:01.479Z,14.3
2022-08-11T01:33:18.583Z,13.8
2022-08-11T01:34:35.688Z,12.9
2022-08-11T01:35:52.792Z,13.6
2022-08-11T01:37:09.896Z,13.8
2022-08-11T01:38:27.000Z,13.4
2022-08-11T01:39:44.104Z,13.9
2022-08-11T01:41:00.224Z,15.1
2022-08-11T01:42:17.328Z,13
2022-08-11T01:43:34.432Z,13.9
2022-08-11T01:44:51.536Z,13.7
2022-08-11T01:46:08.641Z,12.4
2022-08-11T01:47:25.745Z,16.3
2022-08-11T01:48:42.849Z,15.6
2022-08-11T01:49:59.953Z,13.1
2022-08-11T01:51:17.057Z,15.3
2022-08-11T01:52:34.161Z,15.2
2022-08-11T01:53:51.265Z,12.9
2022-08-11T01:55:08.369Z,15.1
2022-08-11T01:56:25.474Z,15.1
2022-08-11T01:57:41.594Z,12.4
2022-08-11T01:58:58.698Z,14.5
2022-08-11T02:00:15.802Z,13.2
2022-08-11T02:01:32.906Z,13.1
2022-08-11T02:02:50.010Z,15.9
2022-08-11T02:04:07.114Z,12.4
2022-08-11T02:05:24.218Z,13.1
2022-08-11T02:06:41.322Z,13.7
2022-08-11T02:07:58.427Z,13.1
2022-08-11T02:09:15.531Z,13.2
2022-08-11T02:10:32.635Z,13.9
2022-08-11T02:11:49.739Z,13.9
2022-08-11T02:13:06.843Z,13.3
2022-08-11T02:14:22.963Z,12.8
2022-08-11T02:15:40.067Z,13.4
2022-08-11T02:16:57.171Z,13.5
2022-08-11T02:18:14.275Z,13.2
2022-08-11T02:19:31.379Z,12.4
2022-08-11T02:20:48.483Z,13
2022-08-11T02:22:05.587Z,14.6
2022-08-11T02:23:22.692Z,14.2
2022-08-11T02:24:39.796Z,14
2022-08-11T02:25:56.900Z,15
2022-08-11T02:27:14.004Z,15.1
2022-08-11T02:28:31.108Z,14.4
2022-08-11T02:29:48.212Z,13.3
2022-08-11T02:31:04.333Z,13.1
2022-08-11T02:32:21.438Z,13.7
2022-08-11T02:33:38.542Z,13.3
2022-08-11T02:34:55.646Z,13.8
2022-08-11T02:36:12.750Z,14.2
2022-08-11T02:37:29.854Z,14.3
2022-08-11T02:38:46.958Z,14.2
2022-08-11T02:40:04.062Z,14.7
2022-08-11T02:41:21.166Z,14.4
2022-08-11T02:42:38.270Z,13.7
2022-08-11T02:43:55.374Z,12.9
2022-08-11T02:45:12.478Z,14.1
2022-08-11T02:46:29.582Z,13.2
2022-08-11T02:47:45.703Z,14.6
2022-08-11T02:49:02.807Z,13.7
2022-08-11T02:50:19.911Z,13.7
2022-08-11T02:51:37.015Z,16.4
2022-08-11T02:52:54.119Z,16
2022-08-11T02:54:11.223Z,14.1
2022-08-11T02:55:28.327Z,16.9
2022-08-11T02:56:45.431Z,15.9
2022-08-11T02:58:02.535Z,15
2022-08-11T02:59:19.640Z,16.1
2022-08-11T03:00:36.743Z,14.7
2022-08-11T03:01:53.848Z,14.2
2022-08-11T03:03:10.952Z,14.4
2022-08-11T03:04:27.072Z,16.2
2022-08-11T03:05:44.176Z,13.9
2022-08-11T03:07:01.280Z,16.6
2022-08-11T03:08:18.384Z,13.8
2022-08-11T03:09:35.488Z,13.2
2022-08-11T03:10:52.592Z,14
2022-08-11T03:12:09.697Z,13.6
2022-08-11T03:13:26.801Z,14.5
2022-08-11T03:14:43.905Z,13.9
2022-08-11T03:16:01.009Z,13.9
2022-08-11T03:17:18.113Z,16.6
2022-08-11T03:18:35.217Z,16.5
2022-08-11T03:19:52.321Z,14
2022-08-11T03:21:08.441Z,13.7
2022-08-11T03:22:25.545Z,13.6
2022-08-11T03:23:42.649Z,15.2
2022-08-11T03:24:59.754Z,15.2
2022-08-11T03:26:16.858Z,15
2022-08-11T03:27:33.962Z,15.1
2022-08-11T03:28:51.066Z,15.2
2022-08-11T03:30:08.170Z,15
2022-08-11T03:31:25.274Z,14.2
2022-08-11T03:32:42.378Z,13.9
2022-08-11T03:33:59.482Z,15.7
2022-08-11T03:35:16.586Z,16.2
2022-08-11T03:36:33.691Z,16
2022-08-11T03:37:49.811Z,14.2
2022-08-11T03:39:06.915Z,14.1
2022-08-11T03:40:24.019Z,14.4
2022-08-11T03:41:41.123Z,14.3
2022-08-11T03:42:58.227Z,15.4
2022-08-11T03:44:15.332Z,15.5
2022-08-11T03:45:32.436Z,15.4
2022-08-11T03:46:49.540Z,15.7
2022-08-11T03:48:06.644Z,15.9
2022-08-11T03:49:23.748Z,15.8
2022-08-11T03:50:40.853Z,15
2022-08-11T03:51:57.958Z,15.8
2022-08-11T03:53:15.062Z,15.3
2022-08-11T03:54:31.182Z,15.6
2022-08-11T03:55:48.286Z,15.7
2022-08-11T03:57:05.391Z,15.4
2022-08-11T03:58:22.495Z,15.9
2022-08-11T03:59:39.599Z,15.5
2022-08-11T04:00:56.703Z,15.4
2022-08-11T04:02:13.808Z,15.2
2022-08-11T04:03:30.912Z,15
2022-08-11T04:04:48.016Z,14.8
2022-08-11T04:06:05.120Z,15
2022-08-11T04:07:22.224Z,15.1
2022-08-11T04:08:39.328Z,15.3
2022-08-11T04:09:56.433Z,14.5
2022-08-11T04:11:12.553Z,14.3
2022-08-11T04:12:29.657Z,14.6
2022-08-11T04:13:46.761Z,15.2
2022-08-11T04:15:03.866Z,14.9
2022-08-11T04:16:20.970Z,15.8
2022-08-11T04:17:38.074Z,15.4
2022-08-11T04:18:55.178Z,15.7
2022-08-11T04:20:12.282Z,15.5
2022-08-11T04:21:29.387Z,15.8
2022-08-11T04:22:46.491Z,15.8
2022-08-11T04:24:03.595Z,15.2
2022-08-11T04:25:20.699Z,14.4
2022-08-11T04:26:37.803Z,15.7
2022-08-11T04:27:53.924Z,16.6
2022-08-11T04:29:11.028Z,15.5
2022-08-11T04:30:28.132Z,14.8
2022-08-11T04:31:45.236Z,15.3
2022-08-11T04:33:02.341Z,15.5
2022-08-11T04:34:19.445Z,15.7
2022-08-11T04:35:36.549Z,16.1
2022-08-11T04:36:53.653Z,15.3
2022-08-11T04:38:10.757Z,15.4
2022-08-11T04:39:27.861Z,15.5
2022-08-11T04:40:44.965Z,16
2022-08-11T04:42:02.069Z,15.8
2022-08-11T04:43:19.174Z,14.7
2022-08-11T04:44:35.294Z,14.5
2022-08-11T04:45:52.398Z,13.8
2022-08-11T04:47:09.503Z,14.4
2022-08-11T04:48:26.607Z,13.7
2022-08-11T04:49:43.711Z,13.6
2022-08-11T04:51:00.815Z,13.9
2022-08-11T04:52:17.919Z,13
2022-08-11T04:53:35.022Z,13.6
2022-08-11T04:54:52.126Z,14.5
2022-08-11T04:56:09.230Z,13.8
2022-08-11T04:57:26.334Z,13.9
2022-08-11T04:58:43.438Z,14.2
2022-08-11T05:00:00.542Z,13.7
2022-08-11T05:01:16.663Z,13.5
2022-08-11T05:02:33.767Z,13.6
2022-08-11T05:03:50.871Z,14
2022-08-11T05:05:07.974Z,13.5
2022-08-11T05:06:25.079Z,14
2022-08-11T05:07:42.182Z,14.5
2022-08-11T05:08:59.286Z,13.8
2022-08-11T05:10:16.390Z,13.2
2022-08-11T05:11:33.494Z,12.9
2022-08-11T05:12:50.598Z,13
2022-08-11T05:14:07.702Z,12.8
2022-08-11T05:15:24.806Z,12.6
2022-08-11T05:16:41.911Z,13.2
2022-08-11T05:17:58.031Z,12.5
2022-08-11T05:19:15.135Z,12.4
2022-08-11T05:20:32.239Z,12.7
2022-08-11T05:21:49.343Z,13.1
2022-08-11T05:23:06.447Z,13.8
2022-08-11T05:24:23.551Z,13.4
2022-08-11T05:25:39.671Z,13
2022-08-11T05:26:56.776Z,13.2
2022-08-11T05:28:13.880Z,14
2022-08-11T05:29:30.984Z,14
2022-08-11T05:30:48.088Z,13.5
2022-08-11T05:32:05.192Z,13.9
2022-08-11T05:33:22.296Z,13.8
2022-08-11T05:34:39.400Z,13.1
2022-08-11T05:35:56.504Z,13.8
2022-08-11T05:37:13.608Z,13.9
2022-08-11T05:38:30.712Z,12.8
2022-08-11T05:39:47.816Z,13.5
2022-08-11T05:41:04.920Z,13.7
2022-08-11T05:42:21.040Z,13.6
2022-08-11T05:43:38.144Z,13.5
2022-08-11T05:44:55.248Z,13.2
2022-08-11T05:46:12.352Z,13.2
2022-08-11T05:47:29.456Z,13
2022-08-11T05:48:46.560Z,13.3
2022-08-11T05:50:03.664Z,12.9
2022-08-11T05:51:20.768Z,13.6
2022-08-11T05:52:37.872Z,14
2022-08-11T05:53:54.977Z,13.9
2022-08-11T05:55:12.081Z,14.3
2022-08-11T05:56:29.185Z,14.1
2022-08-11T05:57:46.290Z,13.5
2022-08-11T05:59:02.410Z,14.5
2022-08-11T06:00:19.514Z,14.4
2022-08-11T06:01:36.618Z,16
2022-08-11T06:02:53.723Z,12.3
2022-08-11T06:04:10.827Z,12.8
2022-08-11T06:05:27.931Z,12.2
2022-08-11T06:06:45.035Z,11.5
2022-08-11T06:08:02.140Z,14.3
2022-08-11T06:09:19.244Z,14.4
2022-08-11T06:10:36.348Z,12.6
2022-08-11T06:11:53.453Z,14.3
2022-08-11T06:13:10.558Z,11.6
2022-08-11T06:14:27.662Z,11.8
2022-08-11T06:15:43.782Z,12.4
2022-08-11T06:17:00.887Z,10.8
2022-08-11T06:18:17.991Z,11.5
2022-08-11T06:19:35.095Z,13.1
2022-08-11T06:20:52.200Z,11.5
2022-08-11T06:22:09.304Z,12.8
2022-08-11T06:23:26.409Z,10.1
2022-08-11T06:24:43.514Z,10.6
2022-08-11T06:26:00.619Z,12.8
2022-08-11T06:27:17.723Z,11.6
2022-08-11T06:28:34.828Z,10.3
2022-08-11T06:29:51.932Z,10.6
2022-08-11T06:31:09.037Z,10.8
2022-08-11T06:32:25.158Z,10.5
2022-08-11T06:33:42.262Z,10.2
2022-08-11T06:34:59.367Z,10.6
2022-08-11T06:36:16.472Z,12.2
2022-08-11T06:37:33.577Z,10.5
2022-08-11T06:38:50.681Z,10.4
2022-08-11T06:40:07.786Z,9.9
2022-08-11T06:41:24.891Z,10.6
2022-08-11T06:42:41.996Z,11.3
2022-08-11T06:43:59.101Z,9.5
2022-08-11T06:45:16.206Z,10
2022-08-11T06:46:33.311Z,9
2022-08-11T06:47:50.416Z,9.2
2022-08-11T06:49:06.537Z,10.6
2022-08-11T06:50:23.642Z,10.1
2022-08-11T06:51:40.747Z,10.3
2022-08-11T06:52:57.852Z,10.1
2022-08-11T06:54:14.957Z,9.8
2022-08-11T06:55:32.062Z,9.4
2022-08-11T06:56:49.167Z,9.8
2022-08-11T06:58:06.272Z,9.6
2022-08-11T06:59:23.377Z,9.3
2022-08-11T07:00:40.482Z,9.4
2022-08-11T07:01:57.586Z,9.6
2022-08-11T07:03:14.691Z,10.2
2022-08-11T07:04:31.796Z,10
2022-08-11T07:05:47.917Z,10.9
2022-08-11T07:07:05.022Z,10.5
2022-08-11T07:08:22.127Z,10.6
2022-08-11T07:09:39.232Z,10.7
2022-08-11T07:10:56.337Z,10.7
2022-08-11T07:12:13.442Z,10.5
2022-08-11T07:13:30.547Z,9.8
2022-08-11T07:14:47.652Z,10.5
2022-08-11T07:16:04.757Z,10.1
2022-08-11T07:17:21.862Z,9.8
2022-08-11T07:18:38.966Z,9.8
2022-08-11T07:19:56.072Z,9.3
2022-08-11T07:21:13.177Z,8.4
2022-08-11T07:22:29.298Z,8.3
2022-08-11T07:23:46.403Z,9
2022-08-11T07:25:03.509Z,9.2
2022-08-11T07:26:20.614Z,9.5
2022-08-11T07:27:37.718Z,9.1
2022-08-11T07:28:54.824Z,9.4
2022-08-11T07:30:11.929Z,8.8
2022-08-11T07:31:29.034Z,9.8
2022-08-11T07:32:46.139Z,9.7
2022-08-11T07:34:03.244Z,10
2022-08-11T07:35:20.349Z,9.7
2022-08-11T07:36:37.454Z,9.2
2022-08-11T07:37:54.559Z,9.3
2022-08-11T07:39:10.680Z,9.2
2022-08-11T07:40:27.785Z,10
2022-08-11T07:41:44.890Z,9.2
2022-08-11T07:43:01.995Z,9.5
2022-08-11T07:44:19.100Z,10
2022-08-11T07:45:36.205Z,9.4
2022-08-11T07:46:53.310Z,10.1
2022-08-11T07:48:10.415Z,10.1
2022-08-11T07:49:27.521Z,10.1
2022-08-11T07:50:44.626Z,9.9
2022-08-11T07:52:01.732Z,10
2022-08-11T07:53:18.837Z,10
2022-08-11T07:54:35.943Z,8.9
2022-08-11T07:55:52.064Z,9.5
2022-08-11T07:57:09.170Z,8.7
2022-08-11T07:58:26.275Z,7.6
2022-08-11T07:59:43.380Z,10
2022-08-11T08:01:00.485Z,7.4
2022-08-11T08:02:17.591Z,9
2022-08-11T08:03:34.696Z,9.6
2022-08-11T08:04:51.802Z,8.1
2022-08-11T08:06:08.907Z,9.7
2022-08-11T08:07:26.013Z,10
2022-08-11T08:08:43.118Z,7.3
2022-08-11T08:10:00.224Z,10.2
2022-08-11T08:11:17.330Z,9
2022-08-11T08:12:33.451Z,8.8
2022-08-11T08:13:50.557Z,10.3
2022-08-11T08:15:07.664Z,10.1
2022-08-11T08:16:24.770Z,7.4
2022-08-11T08:17:41.875Z,6.9
2022-08-11T08:18:58.981Z,9.4
2022-08-11T08:20:16.087Z,8.7
2022-08-11T08:21:33.193Z,7.7
2022-08-11T08:22:50.299Z,7
2022-08-11T08:24:07.404Z,9.7
2022-08-11T08:25:24.510Z,8.3
2022-08-11T08:26:41.616Z,7.3
2022-08-11T08:27:58.722Z,6.8
2022-08-11T08:29:14.844Z,8.2
2022-08-11T08:30:31.949Z,8.4
2022-08-11T08:31:49.055Z,7.9
2022-08-11T08:33:06.161Z,7.3
2022-08-11T08:34:23.267Z,7.3
2022-08-11T08:35:40.372Z,6.4
2022-08-11T08:36:57.478Z,7.2
2022-08-11T08:38:14.584Z,7.4
2022-08-11T08:39:31.690Z,7.4
2022-08-11T08:42:05.902Z,8.2
2022-08-11T08:43:23.007Z,6.3
2022-08-11T08:44:40.113Z,6.8
2022-08-11T08:45:56.235Z,9.5
2022-08-11T08:47:13.340Z,7.9
2022-08-11T08:48:30.446Z,8.8
2022-08-11T08:49:47.552Z,8.9
2022-08-11T08:51:04.657Z,7.8
2022-08-11T08:52:21.763Z,9.7
2022-08-11T08:53:38.868Z,10
2022-08-11T08:54:55.974Z,7.6
2022-08-11T08:56:13.079Z,10.9
2022-08-11T08:57:30.185Z,8.7
2022-08-11T08:58:47.290Z,9
2022-08-11T09:00:04.396Z,9.8
2022-08-11T09:01:21.501Z,7.4
2022-08-11T09:02:37.623Z,8.2
2022-08-11T09:03:54.728Z,9.6
2022-08-11T09:05:11.833Z,8.9
2022-08-11T09:06:28.939Z,9.7
2022-08-11T09:07:46.044Z,10
2022-08-11T09:09:03.149Z,9
2022-08-11T09:10:20.255Z,9.2
2022-08-11T09:11:37.360Z,10.7
2022-08-11T09:12:54.465Z,9.3
2022-08-11T09:14:11.571Z,8.1
2022-08-11T09:15:28.676Z,8
2022-08-11T09:16:45.781Z,8.6
2022-08-11T09:18:02.886Z,8.2
2022-08-11T09:19:19.008Z,8.9
2022-08-11T09:20:36.113Z,8.2
2022-08-11T09:21:53.218Z,8
2022-08-11T09:23:10.324Z,7.9
2022-08-11T09:24:27.429Z,10.8
2022-08-11T09:25:44.534Z,7.8
2022-08-11T09:27:01.639Z,8.8
2022-08-11T09:28:18.745Z,8.9
2022-08-11T09:29:35.850Z,8.9
2022-08-11T09:30:52.955Z,9.3
2022-08-11T09:32:10.061Z,10.1
2022-08-11T09:33:27.166Z,7.5
2022-08-11T09:34:44.272Z,7.1
2022-08-11T09:36:00.393Z,10.1
2022-08-11T09:37:17.498Z,8.1
2022-08-11T09:38:34.604Z,9.6
2022-08-11T09:39:51.709Z,9.9
2022-08-11T09:41:08.814Z,8.9
2022-08-11T09:42:25.919Z,11.4
2022-08-11T09:43:42.041Z,10.3
2022-08-11T09:44:59.146Z,8.5
2022-08-11T09:46:16.251Z,10
2022-08-11T09:47:33.356Z,10.5
2022-08-11T09:48:50.461Z,8.7
2022-08-11T09:50:07.567Z,9.6
2022-08-11T09:51:24.672Z,18.6
2022-08-11T09:52:41.777Z,8.8
2022-08-11T09:53:58.882Z,9.7
2022-08-11T09:55:15.987Z,11.8
2022-08-11T09:56:33.092Z,11.9
2022-08-11T09:57:50.197Z,9.1
2022-08-11T09:59:07.302Z,8.8
2022-08-11T10:00:23.423Z,11.2
2022-08-11T10:01:40.528Z,10
2022-08-11T10:02:57.632Z,9.3
2022-08-11T10:04:14.737Z,11.2
2022-08-11T10:05:31.842Z,9.6
2022-08-11T10:06:48.947Z,9.3
2022-08-11T10:08:06.052Z,9.4
2022-08-11T10:09:23.157Z,9.1
2022-08-11T10:10:40.262Z,9.3
2022-08-11T10:11:57.368Z,9.6
2022-08-11T10:13:14.472Z,9.5
2022-08-11T10:14:31.577Z,9
2022-08-11T10:15:48.682Z,9.1
2022-08-11T10:17:04.803Z,9.1
2022-08-11T10:18:21.908Z,9.1
2022-08-11T10:19:39.013Z,9.1
2022-08-11T10:20:56.118Z,9.2
2022-08-11T10:22:13.223Z,9
2022-08-11T10:23:30.328Z,8.6
2022-08-11T10:24:47.433Z,9.4
2022-08-11T10:26:04.538Z,9.1
2022-08-11T10:27:21.643Z,8.5
2022-08-11T10:28:38.748Z,11.2
2022-08-11T10:29:55.853Z,10.1
2022-08-11T10:31:12.959Z,9.9
2022-08-11T10:32:30.064Z,9.1
2022-08-11T10:33:46.185Z,8.4
2022-08-11T10:35:03.290Z,8.6
2022-08-11T10:36:20.395Z,10.6
2022-08-11T10:37:37.500Z,10
2022-08-11T10:38:54.605Z,8.5
2022-08-11T10:40:11.710Z,8.5
2022-08-11T10:41:28.815Z,7.9
2022-08-11T10:42:45.919Z,9.1
2022-08-11T10:44:03.024Z,9
2022-08-11T10:45:20.129Z,8.7
2022-08-11T10:46:37.233Z,8.4
2022-08-11T10:47:54.338Z,8.6
2022-08-11T10:49:11.442Z,7.9
2022-08-11T10:50:27.563Z,7.4
2022-08-11T10:51:44.667Z,10.3
2022-08-11T10:53:01.772Z,8.6
2022-08-11T10:54:18.877Z,7.6
2022-08-11T10:55:35.982Z,8.4
2022-08-11T10:56:53.086Z,7.5
2022-08-11T10:58:10.191Z,8.8
2022-08-11T10:59:27.295Z,8.6
2022-08-11T11:00:44.400Z,7.1
2022-08-11T11:02:01.504Z,10.4
2022-08-11T11:03:18.609Z,9.9
2022-08-11T11:04:35.713Z,7.3
2022-08-11T11:05:52.817Z,8.8
2022-08-11T11:07:08.938Z,9.1
2022-08-11T11:08:26.040Z,6.9
2022-08-11T11:09:43.145Z,8.4
2022-08-11T11:11:00.249Z,7.4
2022-08-11T11:12:17.354Z,6.7
2022-08-11T11:13:34.458Z,8.7
2022-08-11T11:14:51.563Z,9.9
2022-08-11T11:16:08.667Z,9
2022-08-11T11:17:25.771Z,17.3
2022-08-11T11:18:42.875Z,9.5
2022-08-11T11:19:59.979Z,8.6
2022-08-11T11:21:17.084Z,10.9
2022-08-11T11:22:34.188Z,9.8
2022-08-11T11:23:50.308Z,8.4
2022-08-11T11:25:07.411Z,9.3
2022-08-11T11:26:24.516Z,8.9
2022-08-11T11:27:41.620Z,8.2
2022-08-11T11:28:58.723Z,7.6
2022-08-11T11:30:15.827Z,8.9
2022-08-11T11:31:32.931Z,9.1
2022-08-11T11:32:50.035Z,9.7
2022-08-11T11:34:07.139Z,9.9
2022-08-11T11:35:24.243Z,10.4
2022-08-11T11:36:41.348Z,12.7
2022-08-11T11:37:58.452Z,10.7
2022-08-11T11:39:15.556Z,12.2
2022-08-11T11:40:31.676Z,11.4
2022-08-11T11:41:48.781Z,12.4
2022-08-11T11:43:05.885Z,11.9
2022-08-11T11:44:22.990Z,11.4
2022-08-11T11:45:40.095Z,8.7
2022-08-11T11:46:57.199Z,11.4
2022-08-11T11:48:14.304Z,10.5
2022-08-11T11:49:31.408Z,9.4
2022-08-11T11:50:48.513Z,10.8
2022-08-11T11:52:05.618Z,8.8
2022-08-11T11:53:22.723Z,8.8
2022-08-11T11:54:39.828Z,13.5
2022-08-11T11:55:56.932Z,11.3
2022-08-11T11:57:13.053Z,8.9
2022-08-11T11:58:30.157Z,11.4
2022-08-11T11:59:47.262Z,10.2
2022-08-11T12:01:04.367Z,9.3
2022-08-11T12:02:21.471Z,8.5
2022-08-11T12:03:38.576Z,10.8
2022-08-11T12:04:55.681Z,9.8
2022-08-11T12:06:12.785Z,8.8
2022-08-11T12:07:29.889Z,8.2
2022-08-11T12:08:46.993Z,10
2022-08-11T12:10:04.098Z,10.2
2022-08-11T12:11:21.202Z,10.1
2022-08-11T12:12:38.306Z,9.3
2022-08-11T12:13:54.427Z,9.4
2022-08-11T12:15:11.531Z,9.2
2022-08-11T12:16:28.635Z,9.4
2022-08-11T12:17:45.739Z,9.7
2022-08-11T12:19:02.844Z,12.5
2022-08-11T12:20:19.948Z,10.8
2022-08-11T12:21:37.053Z,8.3
2022-08-11T12:22:54.157Z,9.3
2022-08-11T12:24:11.261Z,10.2
2022-08-11T12:25:28.365Z,9.1
2022-08-11T12:26:45.469Z,11.5
2022-08-11T12:28:02.573Z,11.8
2022-08-11T12:29:19.678Z,9.6
2022-08-11T12:30:35.798Z,11.8
2022-08-11T12:31:52.902Z,10.5
2022-08-11T12:33:10.007Z,9
2022-08-11T12:34:27.111Z,11.5
2022-08-11T12:35:44.215Z,9.8
2022-08-11T12:37:01.319Z,9.4
2022-08-11T12:38:18.424Z,11.4
2022-08-11T12:39:35.529Z,10.6
2022-08-11T12:40:52.633Z,9
2022-08-11T12:42:09.737Z,8.9
2022-08-11T12:43:26.843Z,10
2022-08-11T12:44:43.947Z,8.9
2022-08-11T12:46:01.051Z,8.8
2022-08-11T12:47:17.172Z,8.5
2022-08-11T12:48:34.276Z,10.8
2022-08-11T12:49:51.380Z,9.6
2022-08-11T12:51:08.484Z,8.9
2022-08-11T12:52:25.589Z,8.8
2022-08-11T12:53:42.693Z,9
2022-08-11T12:54:59.797Z,11.5
2022-08-11T12:56:16.902Z,11.9
2022-08-11T12:57:34.006Z,9.4
2022-08-11T12:58:51.110Z,9
2022-08-11T13:00:08.214Z,9
2022-08-11T13:01:25.318Z,11.4
2022-08-11T13:02:42.423Z,9.5
2022-08-11T13:03:58.543Z,9.6
2022-08-11T13:05:15.647Z,10.1
2022-08-11T13:06:32.752Z,10
2022-08-11T13:07:49.856Z,8.4
2022-08-11T13:09:06.960Z,9
2022-08-11T13:10:24.064Z,10.5
2022-08-11T13:11:41.168Z,9.1
2022-08-11T13:12:58.273Z,9.5
2022-08-11T13:14:15.377Z,9.5
2022-08-11T13:15:32.481Z,8.9
2022-08-11T13:16:49.586Z,8.7
2022-08-11T13:18:06.690Z,9.9
2022-08-11T13:19:23.794Z,9.1
2022-08-11T13:20:39.914Z,9.3
2022-08-11T13:21:57.019Z,9.4
2022-08-11T13:23:14.123Z,8.8
2022-08-11T13:24:31.227Z,8.7
2022-08-11T13:25:48.331Z,8.1
2022-08-11T13:27:05.435Z,8.2
2022-08-11T13:28:22.540Z,9.7
2022-08-11T13:29:39.644Z,9
2022-08-11T13:30:56.748Z,9.6
2022-08-11T13:32:13.852Z,10.9
2022-08-11T13:33:30.957Z,9.9
2022-08-11T13:34:48.061Z,10.4
2022-08-11T13:36:05.165Z,8.6
2022-08-11T13:37:21.285Z,8.6
2022-08-11T13:38:38.389Z,9.5
2022-08-11T13:39:55.494Z,9.7
2022-08-11T13:41:12.598Z,8.3
2022-08-11T13:42:29.700Z,9.2
2022-08-11T13:43:46.804Z,8.4
2022-08-11T13:45:03.909Z,9.1
2022-08-11T13:46:21.013Z,10.9
2022-08-11T13:47:38.117Z,8.7
2022-08-11T13:48:55.221Z,7.8
2022-08-11T13:50:12.326Z,7.6
2022-08-11T13:51:29.430Z,9.1
2022-08-11T13:52:46.534Z,8.2
2022-08-11T13:54:02.654Z,8.3
2022-08-11T13:55:19.759Z,9.4
2022-08-11T13:56:36.863Z,5.9
2022-08-11T13:57:53.968Z,6.1
2022-08-11T13:59:11.072Z,9.9
2022-08-11T14:00:28.177Z,8
2022-08-11T14:01:44.297Z,7.7
2022-08-11T14:03:01.402Z,11
2022-08-11T14:04:18.507Z,9.1
2022-08-11T14:05:35.611Z,9.3
2022-08-11T14:06:52.716Z,7.5
2022-08-11T14:08:09.821Z,8.9
2022-08-11T14:09:26.925Z,8.6
2022-08-11T14:10:44.030Z,10.6
2022-08-11T14:12:01.134Z,9.2
2022-08-11T14:13:18.239Z,11.9
2022-08-11T14:14:35.341Z,8.6
2022-08-11T14:15:52.446Z,10.2
2022-08-11T14:17:09.550Z,10.7
2022-08-11T14:18:25.670Z,8.8
2022-08-11T14:19:42.775Z,8.9
2022-08-11T14:20:59.879Z,10.3
2022-08-11T14:22:16.983Z,9.1
2022-08-11T14:23:34.087Z,9.9
2022-08-11T14:24:51.192Z,8.9
2022-08-11T14:26:08.296Z,8.5
2022-08-11T14:27:25.400Z,8.1
2022-08-11T14:28:42.504Z,8.5
2022-08-11T14:29:59.609Z,9.3
2022-08-11T14:31:16.713Z,9.9
2022-08-11T14:32:33.817Z,7.5
2022-08-11T14:33:50.921Z,7.7
2022-08-11T14:35:07.042Z,9.2
2022-08-11T14:36:24.147Z,8.7
2022-08-11T14:37:41.251Z,8.8
2022-08-11T14:38:58.355Z,9.3
2022-08-11T14:40:15.459Z,8.7
2022-08-11T14:41:32.563Z,7.6
2022-08-11T14:42:49.668Z,8.1
2022-08-11T14:44:06.772Z,9.2
2022-08-11T14:45:23.876Z,8
2022-08-11T14:46:40.981Z,7.5
2022-08-11T14:47:58.085Z,8.3
2022-08-11T14:49:15.189Z,8.2
2022-08-11T14:50:32.294Z,9.7
2022-08-11T14:51:48.414Z,8.5
2022-08-11T14:53:05.518Z,9
2022-08-11T14:54:22.623Z,9.5
2022-08-11T14:55:39.727Z,8.3
2022-08-11T14:56:56.831Z,10.5
2022-08-11T14:58:13.936Z,9.6
2022-08-11T14:59:31.040Z,9.1
2022-08-11T15:00:48.144Z,8.6
2022-08-11T15:02:05.249Z,8.5
2022-08-11T15:03:22.353Z,7.9
2022-08-11T15:04:39.457Z,8
2022-08-11T15:05:56.562Z,8.8
2022-08-11T15:07:13.666Z,9.5
2022-08-11T15:08:29.786Z,8.6
2022-08-11T15:09:46.891Z,9.3
2022-08-11T15:11:03.995Z,8
2022-08-11T15:12:21.099Z,7.9
2022-08-11T15:13:38.203Z,9.4
2022-08-11T15:14:55.308Z,7.9
2022-08-11T15:16:12.412Z,8.4
2022-08-11T15:17:29.516Z,10.8
2022-08-11T15:18:46.620Z,9.5
2022-08-11T15:20:03.725Z,7.6
2022-08-11T15:21:20.829Z,7.3
2022-08-11T15:22:37.933Z,8.9
2022-08-11T15:23:55.037Z,6.9
2022-08-11T15:25:11.158Z,7.5
2022-08-11T15:26:28.262Z,8.9
2022-08-11T15:27:45.366Z,8.2
2022-08-11T15:29:02.470Z,10.2
2022-08-11T15:30:19.574Z,9.2
2022-08-11T15:31:36.679Z,9.1
2022-08-11T15:32:53.783Z,8.2
2022-08-11T15:34:10.887Z,7.3
2022-08-11T15:35:27.991Z,8
2022-08-11T15:36:45.096Z,8.1
2022-08-11T15:38:02.200Z,7.8
2022-08-11T15:39:19.305Z,8.3
2022-08-11T15:40:36.409Z,9.1
2022-08-11T15:41:52.529Z,9.8
2022-08-11T15:43:09.634Z,8.3
2022-08-11T15:44:26.738Z,10.8
2022-08-11T15:45:43.842Z,10.3
2022-08-11T15:47:00.946Z,7.9
2022-08-11T15:48:18.051Z,8.6
2022-08-11T15:49:35.155Z,9.1
2022-08-11T15:50:52.259Z,8.2
2022-08-11T15:52:09.363Z,10.1
2022-08-11T15:53:26.468Z,9.4
2022-08-11T15:54:43.572Z,10.5
2022-08-11T15:56:00.676Z,8.4
2022-08-11T15:57:17.780Z,7.9
2022-08-11T15:58:33.901Z,8.4
2022-08-11T15:59:51.005Z,10.5
2022-08-11T16:01:08.109Z,8.5
2022-08-11T16:02:25.213Z,10.6
2022-08-11T16:03:42.318Z,10.2
2022-08-11T16:04:59.422Z,9
2022-08-11T16:06:16.526Z,9.3
2022-08-11T16:07:33.630Z,11.3
2022-08-11T16:08:50.735Z,11.1
2022-08-11T16:10:07.839Z,8.3
2022-08-11T16:11:24.943Z,9.6
2022-08-11T16:12:42.047Z,10.3
2022-08-11T16:13:59.151Z,10.4
2022-08-11T16:15:15.272Z,9.2
2022-08-11T16:16:32.376Z,8.2
2022-08-11T16:17:49.480Z,10.9
2022-08-11T16:19:06.585Z,9.2
2022-08-11T16:20:23.687Z,8.9
2022-08-11T16:21:40.791Z,8.5
2022-08-11T16:22:57.895Z,8.7
2022-08-11T16:24:14.999Z,8.4
2022-08-11T16:25:32.103Z,9.8
2022-08-11T16:26:49.208Z,9.1
2022-08-11T16:28:06.312Z,8.6
2022-08-11T16:29:23.417Z,8.4
2022-08-11T16:30:40.521Z,8.8
2022-08-11T16:31:56.641Z,9.7
2022-08-11T16:33:13.745Z,9.7
2022-08-11T16:34:30.849Z,9.3
2022-08-11T16:35:47.954Z,9.2
2022-08-11T16:37:05.058Z,8.7
2022-08-11T16:38:22.162Z,8.9
2022-08-11T16:39:39.267Z,10.1
2022-08-11T16:40:56.371Z,9.7
2022-08-11T16:42:13.475Z,10.1
2022-08-11T16:43:30.579Z,10.4
2022-08-11T16:44:47.683Z,10.6
2022-08-11T16:46:04.787Z,10.2
2022-08-11T16:47:21.892Z,10.5
2022-08-11T16:48:38.012Z,11.9
2022-08-11T16:49:55.116Z,9.6
2022-08-11T16:51:12.221Z,11.9
2022-08-11T16:52:29.325Z,12
2022-08-11T16:53:46.429Z,9.5
2022-08-11T16:55:03.533Z,11.3
2022-08-11T16:56:20.638Z,11.7
2022-08-11T16:57:37.742Z,10.6
2022-08-11T16:58:54.847Z,11.4
2022-08-11T17:00:11.951Z,10.8
2022-08-11T17:01:29.055Z,9.7
2022-08-11T17:02:46.160Z,11.7
2022-08-11T17:04:03.265Z,12.3
2022-08-11T17:05:19.385Z,9.3
2022-08-11T17:06:36.489Z,11.8
2022-08-11T17:07:53.593Z,11.5
2022-08-11T17:09:10.697Z,12.5
2022-08-11T17:10:27.801Z,10
2022-08-11T17:11:44.906Z,12.2
2022-08-11T17:13:02.010Z,11.7
2022-08-11T17:14:19.114Z,10.7
2022-08-11T17:15:36.218Z,10.2
2022-08-11T17:16:53.322Z,10.2
2022-08-11T17:18:10.426Z,11.2
2022-08-11T17:19:27.530Z,9.8
2022-08-11T17:20:44.635Z,11.6
2022-08-11T17:22:00.755Z,10.6
2022-08-11T17:23:17.859Z,10.5
2022-08-11T17:24:34.963Z,11.6
2022-08-11T17:25:52.067Z,10.9
2022-08-11T17:27:09.172Z,10.8
2022-08-11T17:28:26.276Z,9.6